sensor_id;sensor_type;location;lat;lon;timestamp;P1;durP1;ratioP1;P2;durP2;ratioP2
31732;SDS011;18312;51.486;7.144;2023-12-20T00:00:10;1228.90;;;999.90;;
31732;SDS011;18312;51.486;7.144;2023-12-20T00:02:37;1230.37;;;999.90;;
31732;SDS011;18312;51.486;7.144;2023-12-20T00:05:04;1228.75;;;999.90;;
31732;SDS011;18312;51.486;7.144;2023-12-20T00:07:32;1227.55;;;999.90;;
31732;SDS011;18312;51.486;7.144;2023-12-20T00:09:59;1229.72;;;999.90;;
31732;SDS011;18312;51.486;7.144;2023-12-20T00:12:33;1228.05;;;999.90;;
31732;SDS011;18312;51.486;7.144;2023-12-20T00:15:00;1228.70;;;999.90;;
31732;SDS011;18312;51.486;7.144;2023-12-20T00:17:27;1227.35;;;999.90;;
31732;SDS011;18312;51.486;7.144;2023-12-20T00:19:54;1227.68;;;999.90;;
31732;SDS011;18312;51.486;7.144;2023-12-20T00:22:29;1228.40;;;999.90;;
31732;SDS011;18312;51.486;7.144;2023-12-20T00:24:56;1229.55;;;999.90;;
31732;SDS011;18312;51.486;7.144;2023-12-20T00:27:23;1229.88;;;999.90;;
31732;SDS011;18312;51.486;7.144;2023-12-20T00:29:51;1232.00;;;999.90;;
31732;SDS011;18312;51.486;7.144;2023-12-20T00:32:18;1229.35;;;999.90;;
31732;SDS011;18312;51.486;7.144;2023-12-20T00:34:45;1225.82;;;999.90;;
31732;SDS011;18312;51.486;7.144;2023-12-20T00:37:22;1225.73;;;999.90;;
31732;SDS011;18312;51.486;7.144;2023-12-20T00:39:54;1223.88;;;999.90;;
31732;SDS011;18312;51.486;7.144;2023-12-20T00:42:31;1223.73;;;999.90;;
31732;SDS011;18312;51.486;7.144;2023-12-20T00:44:59;1223.95;;;999.90;;
31732;SDS011;18312;51.486;7.144;2023-12-20T00:47:27;1221.65;;;999.90;;
31732;SDS011;18312;51.486;7.144;2023-12-20T00:49:56;1222.93;;;999.90;;
31732;SDS011;18312;51.486;7.144;2023-12-20T00:52:23;1221.30;;;999.90;;
31732;SDS011;18312;51.486;7.144;2023-12-20T00:54:52;1217.45;;;999.90;;
31732;SDS011;18312;51.486;7.144;2023-12-20T00:57:19;1219.95;;;999.90;;
31732;SDS011;18312;51.486;7.144;2023-12-20T00:59:49;1219.28;;;999.90;;
31732;SDS011;18312;51.486;7.144;2023-12-20T01:02:17;1214.05;;;999.90;;
31732;SDS011;18312;51.486;7.144;2023-12-20T01:04:44;1215.95;;;999.90;;
31732;SDS011;18312;51.486;7.144;2023-12-20T01:07:11;1217.07;;;999.90;;
31732;SDS011;18312;51.486;7.144;2023-12-20T01:09:38;1220.13;;;999.90;;
31732;SDS011;18312;51.486;7.144;2023-12-20T01:12:05;1215.32;;;999.90;;
31732;SDS011;18312;51.486;7.144;2023-12-20T01:14:34;1214.38;;;999.90;;
31732;SDS011;18312;51.486;7.144;2023-12-20T01:17:04;1218.47;;;999.90;;
31732;SDS011;18312;51.486;7.144;2023-12-20T01:19:33;1216.28;;;999.90;;
31732;SDS011;18312;51.486;7.144;2023-12-20T01:22:00;1216.77;;;999.90;;
31732;SDS011;18312;51.486;7.144;2023-12-20T01:24:35;1215.25;;;999.90;;
31732;SDS011;18312;51.486;7.144;2023-12-20T01:27:05;1214.95;;;999.90;;
31732;SDS011;18312;51.486;7.144;2023-12-20T01:29:42;1212.47;;;999.90;;
31732;SDS011;18312;51.486;7.144;2023-12-20T01:32:09;1214.50;;;999.90;;
31732;SDS011;18312;51.486;7.144;2023-12-20T01:34:41;1212.63;;;999.90;;
31732;SDS011;18312;51.486;7.144;2023-12-20T01:37:14;1212.28;;;999.90;;
31732;SDS011;18312;51.486;7.144;2023-12-20T01:40:14;1213.00;;;999.90;;
31732;SDS011;18312;51.486;7.144;2023-12-20T01:42:44;1214.05;;;999.90;;
31732;SDS011;18312;51.486;7.144;2023-12-20T01:45:40;1211.00;;;999.90;;
31732;SDS011;18312;51.486;7.144;2023-12-20T01:48:08;1212.95;;;999.90;;
31732;SDS011;18312;51.486;7.144;2023-12-20T01:50:37;1213.70;;;999.90;;
31732;SDS011;18312;51.486;7.144;2023-12-20T01:53:06;1214.40;;;999.90;;
31732;SDS011;18312;51.486;7.144;2023-12-20T01:55:38;1215.93;;;999.90;;
31732;SDS011;18312;51.486;7.144;2023-12-20T01:58:16;1209.18;;;999.90;;
31732;SDS011;18312;51.486;7.144;2023-12-20T02:00:43;1211.10;;;999.90;;
31732;SDS011;18312;51.486;7.144;2023-12-20T02:03:20;1207.88;;;999.90;;
31732;SDS011;18312;51.486;7.144;2023-12-20T02:05:59;1212.97;;;999.90;;
31732;SDS011;18312;51.486;7.144;2023-12-20T02:08:29;1207.85;;;999.90;;
31732;SDS011;18312;51.486;7.144;2023-12-20T02:11:10;1207.18;;;999.90;;
31732;SDS011;18312;51.486;7.144;2023-12-20T02:13:52;1208.45;;;999.90;;
31732;SDS011;18312;51.486;7.144;2023-12-20T02:16:23;1201.88;;;999.90;;
31732;SDS011;18312;51.486;7.144;2023-12-20T02:18:54;1204.00;;;999.90;;
31732;SDS011;18312;51.486;7.144;2023-12-20T02:21:31;1199.57;;;999.90;;
31732;SDS011;18312;51.486;7.144;2023-12-20T02:24:01;1197.10;;;999.90;;
31732;SDS011;18312;51.486;7.144;2023-12-20T02:26:28;1195.97;;;999.90;;
31732;SDS011;18312;51.486;7.144;2023-12-20T02:28:55;1203.63;;;999.90;;
31732;SDS011;18312;51.486;7.144;2023-12-20T02:31:30;1199.28;;;999.90;;
31732;SDS011;18312;51.486;7.144;2023-12-20T02:33:57;1194.80;;;999.90;;
31732;SDS011;18312;51.486;7.144;2023-12-20T02:36:27;1195.88;;;999.90;;
31732;SDS011;18312;51.486;7.144;2023-12-20T02:38:54;1202.55;;;999.90;;
31732;SDS011;18312;51.486;7.144;2023-12-20T02:41:22;1202.15;;;999.90;;
31732;SDS011;18312;51.486;7.144;2023-12-20T02:43:52;1201.25;;;999.90;;
31732;SDS011;18312;51.486;7.144;2023-12-20T02:46:19;1201.63;;;999.90;;
31732;SDS011;18312;51.486;7.144;2023-12-20T02:48:48;1202.95;;;999.90;;
31732;SDS011;18312;51.486;7.144;2023-12-20T02:51:16;1203.50;;;999.90;;
31732;SDS011;18312;51.486;7.144;2023-12-20T02:53:44;1203.82;;;999.90;;
31732;SDS011;18312;51.486;7.144;2023-12-20T02:56:11;1201.65;;;999.90;;
31732;SDS011;18312;51.486;7.144;2023-12-20T02:58:42;1205.78;;;999.90;;
31732;SDS011;18312;51.486;7.144;2023-12-20T03:01:09;1208.20;;;999.90;;
31732;SDS011;18312;51.486;7.144;2023-12-20T03:03:36;1201.70;;;999.90;;
31732;SDS011;18312;51.486;7.144;2023-12-20T03:06:03;1204.43;;;999.90;;
31732;SDS011;18312;51.486;7.144;2023-12-20T03:08:30;1202.50;;;999.90;;
31732;SDS011;18312;51.486;7.144;2023-12-20T03:10:59;1202.15;;;999.90;;
31732;SDS011;18312;51.486;7.144;2023-12-20T03:13:26;1204.73;;;999.90;;
31732;SDS011;18312;51.486;7.144;2023-12-20T03:15:54;1207.30;;;999.90;;
31732;SDS011;18312;51.486;7.144;2023-12-20T03:18:21;1204.90;;;999.90;;
31732;SDS011;18312;51.486;7.144;2023-12-20T03:20:48;1205.13;;;999.90;;
31732;SDS011;18312;51.486;7.144;2023-12-20T03:23:15;1203.20;;;999.90;;
31732;SDS011;18312;51.486;7.144;2023-12-20T03:25:43;1197.97;;;999.90;;
31732;SDS011;18312;51.486;7.144;2023-12-20T03:28:11;1201.38;;;999.90;;
31732;SDS011;18312;51.486;7.144;2023-12-20T03:30:41;1202.40;;;999.90;;
31732;SDS011;18312;51.486;7.144;2023-12-20T03:33:08;1203.13;;;999.90;;
31732;SDS011;18312;51.486;7.144;2023-12-20T03:35:35;1202.10;;;999.90;;
31732;SDS011;18312;51.486;7.144;2023-12-20T03:38:02;1200.67;;;999.90;;
31732;SDS011;18312;51.486;7.144;2023-12-20T03:40:29;1198.03;;;999.90;;
31732;SDS011;18312;51.486;7.144;2023-12-20T03:42:56;1197.18;;;999.90;;
31732;SDS011;18312;51.486;7.144;2023-12-20T03:45:24;1196.88;;;999.90;;
31732;SDS011;18312;51.486;7.144;2023-12-20T03:47:51;1192.07;;;999.90;;
31732;SDS011;18312;51.486;7.144;2023-12-20T03:50:21;1195.68;;;999.90;;
31732;SDS011;18312;51.486;7.144;2023-12-20T03:52:51;1193.32;;;999.90;;
31732;SDS011;18312;51.486;7.144;2023-12-20T03:55:18;1189.72;;;999.90;;
31732;SDS011;18312;51.486;7.144;2023-12-20T03:57:45;1187.07;;;999.90;;
31732;SDS011;18312;51.486;7.144;2023-12-20T04:00:12;1183.13;;;999.90;;
31732;SDS011;18312;51.486;7.144;2023-12-20T04:02:42;1184.85;;;999.90;;
31732;SDS011;18312;51.486;7.144;2023-12-20T04:05:12;1186.65;;;999.90;;
31732;SDS011;18312;51.486;7.144;2023-12-20T04:07:39;1182.75;;;999.90;;
31732;SDS011;18312;51.486;7.144;2023-12-20T04:10:06;1183.43;;;999.90;;
31732;SDS011;18312;51.486;7.144;2023-12-20T04:12:35;1181.40;;;999.90;;
31732;SDS011;18312;51.486;7.144;2023-12-20T04:15:02;1178.90;;;999.90;;
31732;SDS011;18312;51.486;7.144;2023-12-20T04:17:34;1179.35;;;999.90;;
31732;SDS011;18312;51.486;7.144;2023-12-20T04:20:07;1178.25;;;999.90;;
31732;SDS011;18312;51.486;7.144;2023-12-20T04:22:36;1170.80;;;999.90;;
31732;SDS011;18312;51.486;7.144;2023-12-20T04:25:03;1173.50;;;999.90;;
31732;SDS011;18312;51.486;7.144;2023-12-20T04:27:34;1171.75;;;999.90;;
31732;SDS011;18312;51.486;7.144;2023-12-20T04:30:01;1172.10;;;999.90;;
31732;SDS011;18312;51.486;7.144;2023-12-20T04:32:29;1172.23;;;999.90;;
31732;SDS011;18312;51.486;7.144;2023-12-20T04:34:56;1177.32;;;999.90;;
31732;SDS011;18312;51.486;7.144;2023-12-20T04:37:25;1171.28;;;999.90;;
31732;SDS011;18312;51.486;7.144;2023-12-20T04:39:55;1173.72;;;999.90;;
31732;SDS011;18312;51.486;7.144;2023-12-20T04:42:21;1174.00;;;999.90;;
31732;SDS011;18312;51.486;7.144;2023-12-20T04:44:48;1176.65;;;999.90;;
31732;SDS011;18312;51.486;7.144;2023-12-20T04:47:17;1177.40;;;999.90;;
31732;SDS011;18312;51.486;7.144;2023-12-20T04:49:44;1178.40;;;999.90;;
31732;SDS011;18312;51.486;7.144;2023-12-20T04:52:11;1178.72;;;999.90;;
31732;SDS011;18312;51.486;7.144;2023-12-20T04:54:41;1181.35;;;999.90;;
31732;SDS011;18312;51.486;7.144;2023-12-20T04:57:08;1175.95;;;999.90;;
31732;SDS011;18312;51.486;7.144;2023-12-20T04:59:35;1182.03;;;999.90;;
31732;SDS011;18312;51.486;7.144;2023-12-20T05:02:15;1177.45;;;999.90;;
31732;SDS011;18312;51.486;7.144;2023-12-20T05:04:43;1185.95;;;999.90;;
31732;SDS011;18312;51.486;7.144;2023-12-20T05:07:10;1183.07;;;999.90;;
31732;SDS011;18312;51.486;7.144;2023-12-20T05:09:41;1176.35;;;999.90;;
31732;SDS011;18312;51.486;7.144;2023-12-20T05:12:11;1180.53;;;999.90;;
31732;SDS011;18312;51.486;7.144;2023-12-20T05:14:39;1185.93;;;999.90;;
31732;SDS011;18312;51.486;7.144;2023-12-20T05:17:06;1186.80;;;999.90;;
31732;SDS011;18312;51.486;7.144;2023-12-20T05:19:33;1190.57;;;999.90;;
31732;SDS011;18312;51.486;7.144;2023-12-20T05:22:00;1187.28;;;999.90;;
31732;SDS011;18312;51.486;7.144;2023-12-20T05:24:27;1186.82;;;999.90;;
31732;SDS011;18312;51.486;7.144;2023-12-20T05:26:56;1184.88;;;999.90;;
31732;SDS011;18312;51.486;7.144;2023-12-20T05:29:23;1184.00;;;999.90;;
31732;SDS011;18312;51.486;7.144;2023-12-20T05:31:51;1187.40;;;999.90;;
31732;SDS011;18312;51.486;7.144;2023-12-20T05:34:18;1186.85;;;999.90;;
31732;SDS011;18312;51.486;7.144;2023-12-20T05:36:45;1187.68;;;999.90;;
31732;SDS011;18312;51.486;7.144;2023-12-20T05:39:12;1183.63;;;999.90;;
31732;SDS011;18312;51.486;7.144;2023-12-20T05:41:39;1184.18;;;999.90;;
31732;SDS011;18312;51.486;7.144;2023-12-20T05:44:07;1183.13;;;999.90;;
31732;SDS011;18312;51.486;7.144;2023-12-20T05:46:35;1181.95;;;999.90;;
31732;SDS011;18312;51.486;7.144;2023-12-20T05:49:02;1185.85;;;999.90;;
31732;SDS011;18312;51.486;7.144;2023-12-20T05:51:29;1183.35;;;999.90;;
31732;SDS011;18312;51.486;7.144;2023-12-20T05:54:02;1185.75;;;999.90;;
31732;SDS011;18312;51.486;7.144;2023-12-20T05:56:29;1183.22;;;999.90;;
31732;SDS011;18312;51.486;7.144;2023-12-20T05:58:56;1185.45;;;999.90;;
31732;SDS011;18312;51.486;7.144;2023-12-20T06:01:25;1182.87;;;999.90;;
31732;SDS011;18312;51.486;7.144;2023-12-20T06:03:52;1189.43;;;999.90;;
31732;SDS011;18312;51.486;7.144;2023-12-20T06:06:18;1188.28;;;999.90;;
31732;SDS011;18312;51.486;7.144;2023-12-20T06:08:49;1188.20;;;999.90;;
31732;SDS011;18312;51.486;7.144;2023-12-20T06:11:17;1187.20;;;999.90;;
31732;SDS011;18312;51.486;7.144;2023-12-20T06:13:43;1187.65;;;999.90;;
31732;SDS011;18312;51.486;7.144;2023-12-20T06:16:11;1181.30;;;999.90;;
31732;SDS011;18312;51.486;7.144;2023-12-20T06:18:40;1184.38;;;999.90;;
31732;SDS011;18312;51.486;7.144;2023-12-20T06:21:07;1185.20;;;999.90;;
31732;SDS011;18312;51.486;7.144;2023-12-20T06:23:38;1188.38;;;999.90;;
31732;SDS011;18312;51.486;7.144;2023-12-20T06:26:05;1187.55;;;999.90;;
31732;SDS011;18312;51.486;7.144;2023-12-20T06:28:32;1185.17;;;999.90;;
31732;SDS011;18312;51.486;7.144;2023-12-20T06:31:00;1186.70;;;999.90;;
31732;SDS011;18312;51.486;7.144;2023-12-20T06:33:28;1188.07;;;999.90;;
31732;SDS011;18312;51.486;7.144;2023-12-20T06:35:57;1187.43;;;999.90;;
31732;SDS011;18312;51.486;7.144;2023-12-20T06:38:24;1189.95;;;999.90;;
31732;SDS011;18312;51.486;7.144;2023-12-20T06:40:51;1189.97;;;999.90;;
31732;SDS011;18312;51.486;7.144;2023-12-20T06:43:25;1193.63;;;999.90;;
31732;SDS011;18312;51.486;7.144;2023-12-20T06:45:52;1193.65;;;999.90;;
31732;SDS011;18312;51.486;7.144;2023-12-20T06:48:19;1193.88;;;999.90;;
31732;SDS011;18312;51.486;7.144;2023-12-20T06:50:46;1191.63;;;999.90;;
31732;SDS011;18312;51.486;7.144;2023-12-20T06:53:14;1195.22;;;999.90;;
31732;SDS011;18312;51.486;7.144;2023-12-20T06:55:41;1191.38;;;999.90;;
31732;SDS011;18312;51.486;7.144;2023-12-20T06:58:08;1187.40;;;999.90;;
31732;SDS011;18312;51.486;7.144;2023-12-20T07:00:35;1191.70;;;999.90;;
31732;SDS011;18312;51.486;7.144;2023-12-20T07:03:02;1193.25;;;999.90;;
31732;SDS011;18312;51.486;7.144;2023-12-20T07:05:29;1194.03;;;999.90;;
31732;SDS011;18312;51.486;7.144;2023-12-20T07:07:56;1194.20;;;999.90;;
31732;SDS011;18312;51.486;7.144;2023-12-20T07:10:24;1192.20;;;999.90;;
31732;SDS011;18312;51.486;7.144;2023-12-20T07:12:52;1194.05;;;999.90;;
31732;SDS011;18312;51.486;7.144;2023-12-20T07:15:20;1194.97;;;999.90;;
31732;SDS011;18312;51.486;7.144;2023-12-20T07:17:47;1193.00;;;999.90;;
31732;SDS011;18312;51.486;7.144;2023-12-20T07:20:16;1193.77;;;999.90;;
31732;SDS011;18312;51.486;7.144;2023-12-20T07:22:44;1198.38;;;999.90;;
31732;SDS011;18312;51.486;7.144;2023-12-20T07:25:11;1191.25;;;999.90;;
31732;SDS011;18312;51.486;7.144;2023-12-20T07:27:39;1191.38;;;999.90;;
31732;SDS011;18312;51.486;7.144;2023-12-20T07:30:07;1192.25;;;999.90;;
31732;SDS011;18312;51.486;7.144;2023-12-20T07:32:35;1196.50;;;999.90;;
31732;SDS011;18312;51.486;7.144;2023-12-20T07:35:02;1197.95;;;999.90;;
31732;SDS011;18312;51.486;7.144;2023-12-20T07:37:30;1199.20;;;999.90;;
31732;SDS011;18312;51.486;7.144;2023-12-20T07:39:57;1197.43;;;999.90;;
31732;SDS011;18312;51.486;7.144;2023-12-20T07:42:24;1197.27;;;999.90;;
31732;SDS011;18312;51.486;7.144;2023-12-20T07:44:52;1202.03;;;999.90;;
31732;SDS011;18312;51.486;7.144;2023-12-20T07:47:22;1201.47;;;999.90;;
31732;SDS011;18312;51.486;7.144;2023-12-20T07:49:50;1198.78;;;999.90;;
31732;SDS011;18312;51.486;7.144;2023-12-20T07:52:20;1197.30;;;999.90;;
31732;SDS011;18312;51.486;7.144;2023-12-20T07:54:48;1197.85;;;999.90;;
31732;SDS011;18312;51.486;7.144;2023-12-20T07:57:16;1197.70;;;999.90;;
31732;SDS011;18312;51.486;7.144;2023-12-20T07:59:43;1201.60;;;999.90;;
31732;SDS011;18312;51.486;7.144;2023-12-20T08:02:12;1200.22;;;999.90;;
31732;SDS011;18312;51.486;7.144;2023-12-20T08:04:38;1198.72;;;999.90;;
31732;SDS011;18312;51.486;7.144;2023-12-20T08:07:06;1201.60;;;999.90;;
31732;SDS011;18312;51.486;7.144;2023-12-20T08:09:32;1201.47;;;999.90;;
31732;SDS011;18312;51.486;7.144;2023-12-20T08:12:01;1203.85;;;999.90;;
31732;SDS011;18312;51.486;7.144;2023-12-20T08:14:29;1195.95;;;999.90;;
31732;SDS011;18312;51.486;7.144;2023-12-20T08:16:56;1199.05;;;999.90;;
31732;SDS011;18312;51.486;7.144;2023-12-20T08:19:25;1201.32;;;999.90;;
31732;SDS011;18312;51.486;7.144;2023-12-20T08:21:55;1200.63;;;999.90;;
31732;SDS011;18312;51.486;7.144;2023-12-20T08:24:22;1201.53;;;999.90;;
31732;SDS011;18312;51.486;7.144;2023-12-20T08:26:49;1209.65;;;999.90;;
31732;SDS011;18312;51.486;7.144;2023-12-20T08:29:16;1204.43;;;999.90;;
31732;SDS011;18312;51.486;7.144;2023-12-20T08:31:42;1204.60;;;999.90;;
31732;SDS011;18312;51.486;7.144;2023-12-20T08:34:09;1201.03;;;999.90;;
31732;SDS011;18312;51.486;7.144;2023-12-20T08:36:40;1203.70;;;999.90;;
31732;SDS011;18312;51.486;7.144;2023-12-20T08:39:09;1204.65;;;999.90;;
31732;SDS011;18312;51.486;7.144;2023-12-20T08:41:36;1204.30;;;999.90;;
31732;SDS011;18312;51.486;7.144;2023-12-20T08:44:08;1202.45;;;999.90;;
31732;SDS011;18312;51.486;7.144;2023-12-20T08:46:38;1204.30;;;999.90;;
31732;SDS011;18312;51.486;7.144;2023-12-20T08:49:05;1205.38;;;999.90;;
31732;SDS011;18312;51.486;7.144;2023-12-20T08:51:34;1208.53;;;999.90;;
31732;SDS011;18312;51.486;7.144;2023-12-20T08:54:02;1208.78;;;999.90;;
31732;SDS011;18312;51.486;7.144;2023-12-20T08:56:32;1204.07;;;999.90;;
31732;SDS011;18312;51.486;7.144;2023-12-20T08:58:59;1207.07;;;999.90;;
31732;SDS011;18312;51.486;7.144;2023-12-20T09:01:27;1208.13;;;999.90;;
31732;SDS011;18312;51.486;7.144;2023-12-20T09:03:54;1209.43;;;999.90;;
31732;SDS011;18312;51.486;7.144;2023-12-20T09:06:21;1205.28;;;999.90;;
31732;SDS011;18312;51.486;7.144;2023-12-20T09:08:51;1209.53;;;999.90;;
31732;SDS011;18312;51.486;7.144;2023-12-20T09:11:22;1208.57;;;999.90;;
31732;SDS011;18312;51.486;7.144;2023-12-20T09:13:49;1205.80;;;999.90;;
31732;SDS011;18312;51.486;7.144;2023-12-20T09:16:16;1210.00;;;999.90;;
31732;SDS011;18312;51.486;7.144;2023-12-20T09:18:46;1211.65;;;999.90;;
31732;SDS011;18312;51.486;7.144;2023-12-20T09:21:13;1209.97;;;999.90;;
31732;SDS011;18312;51.486;7.144;2023-12-20T09:23:39;1210.25;;;999.90;;
31732;SDS011;18312;51.486;7.144;2023-12-20T09:26:07;1210.10;;;999.90;;
31732;SDS011;18312;51.486;7.144;2023-12-20T09:28:35;1214.22;;;999.90;;
31732;SDS011;18312;51.486;7.144;2023-12-20T09:31:05;1214.90;;;999.90;;
31732;SDS011;18312;51.486;7.144;2023-12-20T09:33:32;1214.70;;;999.90;;
31732;SDS011;18312;51.486;7.144;2023-12-20T09:36:01;1210.93;;;999.90;;
31732;SDS011;18312;51.486;7.144;2023-12-20T09:38:29;1213.75;;;999.90;;
31732;SDS011;18312;51.486;7.144;2023-12-20T09:40:58;1215.50;;;999.90;;
31732;SDS011;18312;51.486;7.144;2023-12-20T09:43:27;1215.25;;;999.90;;
31732;SDS011;18312;51.486;7.144;2023-12-20T09:45:57;1209.93;;;999.90;;
31732;SDS011;18312;51.486;7.144;2023-12-20T09:48:28;1210.57;;;999.90;;
31732;SDS011;18312;51.486;7.144;2023-12-20T09:50:56;1212.68;;;999.90;;
31732;SDS011;18312;51.486;7.144;2023-12-20T09:53:24;1210.65;;;999.90;;
31732;SDS011;18312;51.486;7.144;2023-12-20T09:55:55;1212.47;;;999.90;;
31732;SDS011;18312;51.486;7.144;2023-12-20T09:58:25;1210.85;;;999.90;;
31732;SDS011;18312;51.486;7.144;2023-12-20T10:00:54;1212.95;;;999.90;;
31732;SDS011;18312;51.486;7.144;2023-12-20T10:03:26;1213.88;;;999.90;;
31732;SDS011;18312;51.486;7.144;2023-12-20T10:05:56;1219.18;;;999.90;;
31732;SDS011;18312;51.486;7.144;2023-12-20T10:08:25;1216.47;;;999.90;;
31732;SDS011;18312;51.486;7.144;2023-12-20T10:10:52;1218.07;;;999.90;;
31732;SDS011;18312;51.486;7.144;2023-12-20T10:13:20;1212.70;;;999.90;;
31732;SDS011;18312;51.486;7.144;2023-12-20T10:15:47;1218.05;;;999.90;;
31732;SDS011;18312;51.486;7.144;2023-12-20T10:18:17;1220.60;;;999.90;;
31732;SDS011;18312;51.486;7.144;2023-12-20T10:20:44;1219.63;;;999.90;;
31732;SDS011;18312;51.486;7.144;2023-12-20T10:23:13;1217.90;;;999.90;;
31732;SDS011;18312;51.486;7.144;2023-12-20T10:25:49;1220.57;;;999.90;;
31732;SDS011;18312;51.486;7.144;2023-12-20T10:28:23;1217.70;;;999.90;;
31732;SDS011;18312;51.486;7.144;2023-12-20T10:30:52;1218.95;;;999.90;;
31732;SDS011;18312;51.486;7.144;2023-12-20T10:33:24;1220.95;;;999.90;;
31732;SDS011;18312;51.486;7.144;2023-12-20T10:35:52;1224.97;;;999.90;;
31732;SDS011;18312;51.486;7.144;2023-12-20T10:38:19;1215.68;;;999.90;;
31732;SDS011;18312;51.486;7.144;2023-12-20T10:40:47;1219.45;;;999.90;;
31732;SDS011;18312;51.486;7.144;2023-12-20T10:43:14;1218.65;;;999.90;;
31732;SDS011;18312;51.486;7.144;2023-12-20T10:45:41;1219.50;;;999.90;;
31732;SDS011;18312;51.486;7.144;2023-12-20T10:48:09;1217.20;;;999.90;;
31732;SDS011;18312;51.486;7.144;2023-12-20T10:50:39;1219.10;;;999.90;;
31732;SDS011;18312;51.486;7.144;2023-12-20T10:53:08;1218.03;;;999.90;;
31732;SDS011;18312;51.486;7.144;2023-12-20T10:55:37;1224.30;;;999.90;;
31732;SDS011;18312;51.486;7.144;2023-12-20T10:58:06;1218.95;;;999.90;;
31732;SDS011;18312;51.486;7.144;2023-12-20T11:00:35;1219.88;;;999.90;;
31732;SDS011;18312;51.486;7.144;2023-12-20T11:03:07;1221.23;;;999.90;;
31732;SDS011;18312;51.486;7.144;2023-12-20T11:05:36;1220.90;;;999.90;;
31732;SDS011;18312;51.486;7.144;2023-12-20T11:08:12;1217.00;;;999.90;;
31732;SDS011;18312;51.486;7.144;2023-12-20T11:10:50;1219.53;;;999.90;;
31732;SDS011;18312;51.486;7.144;2023-12-20T11:13:23;1216.28;;;999.90;;
31732;SDS011;18312;51.486;7.144;2023-12-20T11:15:58;1220.25;;;999.90;;
31732;SDS011;18312;51.486;7.144;2023-12-20T11:18:28;1216.43;;;999.90;;
31732;SDS011;18312;51.486;7.144;2023-12-20T11:21:01;1220.03;;;999.90;;
31732;SDS011;18312;51.486;7.144;2023-12-20T11:23:31;1218.53;;;999.90;;
31732;SDS011;18312;51.486;7.144;2023-12-20T11:25:59;1221.30;;;999.90;;
31732;SDS011;18312;51.486;7.144;2023-12-20T11:28:33;1223.38;;;999.90;;
31732;SDS011;18312;51.486;7.144;2023-12-20T11:31:01;1219.53;;;999.90;;
31732;SDS011;18312;51.486;7.144;2023-12-20T11:33:30;1221.15;;;999.90;;
31732;SDS011;18312;51.486;7.144;2023-12-20T11:36:13;1220.38;;;999.90;;
31732;SDS011;18312;51.486;7.144;2023-12-20T11:38:55;1223.57;;;999.90;;
31732;SDS011;18312;51.486;7.144;2023-12-20T11:41:25;1227.20;;;999.90;;
31732;SDS011;18312;51.486;7.144;2023-12-20T11:43:54;1229.88;;;999.90;;
31732;SDS011;18312;51.486;7.144;2023-12-20T11:46:26;1220.37;;;999.90;;
31732;SDS011;18312;51.486;7.144;2023-12-20T11:48:54;1223.97;;;999.90;;
31732;SDS011;18312;51.486;7.144;2023-12-20T11:51:29;1224.82;;;999.90;;
31732;SDS011;18312;51.486;7.144;2023-12-20T11:53:57;1224.88;;;999.90;;
31732;SDS011;18312;51.486;7.144;2023-12-20T11:56:24;1223.87;;;999.90;;
31732;SDS011;18312;51.486;7.144;2023-12-20T11:58:53;1222.97;;;999.90;;
31732;SDS011;18312;51.486;7.144;2023-12-20T12:01:22;1223.30;;;999.90;;
31732;SDS011;18312;51.486;7.144;2023-12-20T12:04:01;1221.85;;;999.90;;
31732;SDS011;18312;51.486;7.144;2023-12-20T12:06:37;1221.90;;;999.90;;
31732;SDS011;18312;51.486;7.144;2023-12-20T12:09:07;1223.97;;;999.90;;
31732;SDS011;18312;51.486;7.144;2023-12-20T12:11:37;1224.07;;;999.90;;
31732;SDS011;18312;51.486;7.144;2023-12-20T12:14:08;1219.70;;;999.90;;
31732;SDS011;18312;51.486;7.144;2023-12-20T12:16:35;1214.95;;;999.90;;
31732;SDS011;18312;51.486;7.144;2023-12-20T12:19:03;1212.25;;;999.90;;
31732;SDS011;18312;51.486;7.144;2023-12-20T12:21:48;1217.00;;;999.90;;
31732;SDS011;18312;51.486;7.144;2023-12-20T12:24:19;1217.43;;;999.90;;
31732;SDS011;18312;51.486;7.144;2023-12-20T12:26:52;1211.43;;;999.90;;
31732;SDS011;18312;51.486;7.144;2023-12-20T12:29:27;1217.05;;;999.90;;
31732;SDS011;18312;51.486;7.144;2023-12-20T12:32:04;1217.55;;;999.90;;
31732;SDS011;18312;51.486;7.144;2023-12-20T12:34:33;1215.13;;;999.90;;
31732;SDS011;18312;51.486;7.144;2023-12-20T12:37:19;1214.88;;;999.90;;
31732;SDS011;18312;51.486;7.144;2023-12-20T12:39:53;1219.33;;;999.90;;
31732;SDS011;18312;51.486;7.144;2023-12-20T12:42:24;1220.78;;;999.90;;
31732;SDS011;18312;51.486;7.144;2023-12-20T12:44:59;1221.03;;;999.90;;
31732;SDS011;18312;51.486;7.144;2023-12-20T12:47:26;1213.60;;;999.90;;
31732;SDS011;18312;51.486;7.144;2023-12-20T12:49:53;1217.18;;;999.90;;
31732;SDS011;18312;51.486;7.144;2023-12-20T12:52:25;1219.28;;;999.90;;
31732;SDS011;18312;51.486;7.144;2023-12-20T12:55:04;1219.20;;;999.90;;
31732;SDS011;18312;51.486;7.144;2023-12-20T12:57:48;1219.72;;;999.90;;
31732;SDS011;18312;51.486;7.144;2023-12-20T13:03:08;1220.30;;;999.90;;
31732;SDS011;18312;51.486;7.144;2023-12-20T13:05:35;1223.22;;;999.90;;
31732;SDS011;18312;51.486;7.144;2023-12-20T13:08:10;1228.22;;;999.90;;
31732;SDS011;18312;51.486;7.144;2023-12-20T13:10:38;1224.65;;;999.90;;
31732;SDS011;18312;51.486;7.144;2023-12-20T13:13:13;1227.38;;;999.90;;
31732;SDS011;18312;51.486;7.144;2023-12-20T13:15:43;1226.97;;;999.90;;
31732;SDS011;18312;51.486;7.144;2023-12-20T13:18:23;1232.25;;;999.90;;
31732;SDS011;18312;51.486;7.144;2023-12-20T13:20:57;1226.60;;;999.90;;
31732;SDS011;18312;51.486;7.144;2023-12-20T13:23:31;1228.70;;;999.90;;
31732;SDS011;18312;51.486;7.144;2023-12-20T13:25:58;1223.25;;;999.90;;
31732;SDS011;18312;51.486;7.144;2023-12-20T13:28:37;1224.68;;;999.90;;
31732;SDS011;18312;51.486;7.144;2023-12-20T13:31:04;1222.77;;;999.90;;
31732;SDS011;18312;51.486;7.144;2023-12-20T13:33:42;1223.95;;;999.90;;
31732;SDS011;18312;51.486;7.144;2023-12-20T13:36:09;1227.63;;;999.90;;
31732;SDS011;18312;51.486;7.144;2023-12-20T13:38:39;1228.65;;;999.90;;
31732;SDS011;18312;51.486;7.144;2023-12-20T13:41:07;1227.55;;;999.90;;
31732;SDS011;18312;51.486;7.144;2023-12-20T13:43:38;1230.15;;;999.90;;
31732;SDS011;18312;51.486;7.144;2023-12-20T13:46:05;1230.17;;;999.90;;
31732;SDS011;18312;51.486;7.144;2023-12-20T13:48:35;1232.78;;;999.90;;
31732;SDS011;18312;51.486;7.144;2023-12-20T13:51:12;1227.35;;;999.90;;
31732;SDS011;18312;51.486;7.144;2023-12-20T13:53:45;1227.43;;;999.90;;
31732;SDS011;18312;51.486;7.144;2023-12-20T13:56:16;1221.90;;;999.90;;
31732;SDS011;18312;51.486;7.144;2023-12-20T13:58:48;1222.05;;;999.90;;